Cinque Terre — IUTV — position and weather

sailwx.info

Track history (hours):
 
Tides and Currents Weather Stations Pressure Air Temp Water Temp Dewpoint Dewpoint Depression Visibility Wind Speed Wind Dir Waves Ship Positions

Cinque Terre

Last reported at 2016-Jun-29 16:08 UTC. Time now 2016-Jun-29 20:07 UTC.
Position N 40°38' E 014°20'.

Length 15 m; draft 1 m.

Type: Passenger vessel. MMSI: 247208400.

Date/timePositionNaut miles runAvg speedWind from/ knotsBaromVisibWave heightAir tempDewpointWater temp
2016-Jun-29 16:08N 40°38' E 014°20'3 4.1
2016-Jun-29 15:25N 40°35' E 014°18'5 6.2
2016-Jun-29 14:34N 40°32' E 014°13'4 3.6
2016-Jun-29 13:33N 40°34' E 014°16'3 0.1
2016-Jun-28 15:30N 40°37' E 014°19'5 4.7
2016-Jun-28 14:22N 40°32' E 014°15'3 3.4
2016-Jun-28 13:30N 40°35' E 014°17'3 0.7
2016-Jun-28 09:28N 40°37' E 014°20'4 3.8
2016-Jun-28 08:32N 40°38' E 014°24'9 8.9
2016-Jun-28 07:33N 40°33' E 014°14'7 6.6
2016-Jun-28 06:31N 40°38' E 014°21'2 0.1
2016-Jun-27 15:33N 40°37' E 014°20'7 6.6
2016-Jun-27 14:28N 40°32' E 014°13'3 3.0
2016-Jun-27 13:33N 40°34' E 014°16'0 0.0
2016-Jun-27 08:09N 40°34' E 014°16'0 0.5
2016-Jun-27 07:33N 40°34' E 014°16'3 0.2
2016-Jun-26 15:34N 40°36' E 014°19'6 6.0
2016-Jun-26 14:32N 40°32' E 014°12'3 3.3
2016-Jun-26 13:33N 40°34' E 014°16'2 0.5
2016-Jun-26 10:21N 40°33' E 014°14'2 0.8
2016-Jun-26 08:14N 40°34' E 014°16'2 2.6
2016-Jun-26 07:23N 40°35' E 014°18'2 0.1
2016-Jun-25 16:25N 40°37' E 014°20'1 0.7
2016-Jun-25 15:31N 40°36' E 014°19'6 6.1
2016-Jun-25 14:31N 40°32' E 014°13'2 2.2
2016-Jun-25 13:33N 40°34' E 014°15'2 1.5
2016-Jun-25 12:33N 40°33' E 014°14'0 0.0
2016-Jun-25 08:25N 40°33' E 014°14'1 1.7
2016-Jun-25 07:33N 40°34' E 014°15'5 0.3
2016-Jun-24 16:09N 40°37' E 014°20'0 0.0
2016-Jun-24 15:33N 40°37' E 014°20'7 6.9
2016-Jun-24 14:33N 40°32' E 014°13'2 1.8
2016-Jun-24 13:33N 40°34' E 014°15'1 0.3
2016-Jun-24 10:33N 40°33' E 014°15'1 0.6
2016-Jun-24 08:17N 40°34' E 014°16'0 0.2
2016-Jun-24 07:33N 40°34' E 014°16'  
2016-Jun-20 13:06N 40°37' E 014°20'0 0.0
2016-Jun-20 12:33N 40°37' E 014°20'0 0.0
2016-Jun-20 11:33N 40°37' E 014°20'3 3.3
2016-Jun-20 10:33N 40°40' E 014°21'  
Track history (hours):
 
Tides and Currents Weather Stations Pressure Air Temp Water Temp Dewpoint Dewpoint Depression Visibility Wind Speed Wind Dir Waves Ship Positions

Cinque Terre

Last reported at 2016-Jun-29 16:08 UTC. Time now 2016-Jun-29 20:07 UTC.
Position N 40°38' E 014°20'.

Length 15 m; draft 1 m.

Type: Passenger vessel. MMSI: 247208400.

Date/timePositionNaut miles runAvg speedWind from/ knotsBaromVisibWave heightAir tempDewpointWater temp
2016-Jun-29 16:08N 40°38' E 014°20'3 4.1
2016-Jun-29 15:25N 40°35' E 014°18'5 6.2
2016-Jun-29 14:34N 40°32' E 014°13'4 3.6
2016-Jun-29 13:33N 40°34' E 014°16'3 0.1
2016-Jun-28 15:30N 40°37' E 014°19'5 4.7
2016-Jun-28 14:22N 40°32' E 014°15'3 3.4
2016-Jun-28 13:30N 40°35' E 014°17'3 0.7
2016-Jun-28 09:28N 40°37' E 014°20'4 3.8
2016-Jun-28 08:32N 40°38' E 014°24'9 8.9
2016-Jun-28 07:33N 40°33' E 014°14'7 6.6
2016-Jun-28 06:31N 40°38' E 014°21'2 0.1
2016-Jun-27 15:33N 40°37' E 014°20'7 6.6
2016-Jun-27 14:28N 40°32' E 014°13'3 3.0
2016-Jun-27 13:33N 40°34' E 014°16'0 0.0
2016-Jun-27 08:09N 40°34' E 014°16'0 0.5
2016-Jun-27 07:33N 40°34' E 014°16'3 0.2
2016-Jun-26 15:34N 40°36' E 014°19'6 6.0
2016-Jun-26 14:32N 40°32' E 014°12'3 3.3
2016-Jun-26 13:33N 40°34' E 014°16'2 0.5
2016-Jun-26 10:21N 40°33' E 014°14'2 0.8
2016-Jun-26 08:14N 40°34' E 014°16'2 2.6
2016-Jun-26 07:23N 40°35' E 014°18'2 0.1
2016-Jun-25 16:25N 40°37' E 014°20'1 0.7
2016-Jun-25 15:31N 40°36' E 014°19'6 6.1
2016-Jun-25 14:31N 40°32' E 014°13'2 2.2
2016-Jun-25 13:33N 40°34' E 014°15'2 1.5
2016-Jun-25 12:33N 40°33' E 014°14'0 0.0
2016-Jun-25 08:25N 40°33' E 014°14'1 1.7
2016-Jun-25 07:33N 40°34' E 014°15'5 0.3
2016-Jun-24 16:09N 40°37' E 014°20'0 0.0
2016-Jun-24 15:33N 40°37' E 014°20'7 6.9
2016-Jun-24 14:33N 40°32' E 014°13'2 1.8
2016-Jun-24 13:33N 40°34' E 014°15'1 0.3
2016-Jun-24 10:33N 40°33' E 014°15'1 0.6
2016-Jun-24 08:17N 40°34' E 014°16'0 0.2
2016-Jun-24 07:33N 40°34' E 014°16'  
2016-Jun-20 13:06N 40°37' E 014°20'0 0.0
2016-Jun-20 12:33N 40°37' E 014°20'0 0.0
2016-Jun-20 11:33N 40°37' E 014°20'3 3.3
2016-Jun-20 10:33N 40°40' E 014°21'  

Dump ship's entire track history